createdAt,value
2023-04-30T00:01:04.536Z,9.00
2023-04-30T00:03:31.520Z,8.90
2023-04-30T00:05:58.882Z,8.90
2023-04-30T00:08:26.614Z,8.80
2023-04-30T00:10:53.539Z,8.70
2023-04-30T00:13:20.769Z,8.70
2023-04-30T00:15:47.778Z,8.70
2023-04-30T00:18:14.672Z,8.60
2023-04-30T00:20:41.471Z,8.60
2023-04-30T00:23:08.544Z,8.50
2023-04-30T00:25:36.048Z,8.40
2023-04-30T00:28:02.858Z,8.30
2023-04-30T00:30:29.632Z,8.30
2023-04-30T00:32:56.612Z,8.20
2023-04-30T00:35:23.745Z,8.20
2023-04-30T00:37:50.534Z,8.10
2023-04-30T00:40:17.611Z,8.10
2023-04-30T00:42:44.404Z,8.00
2023-04-30T00:45:12.022Z,8.00
2023-04-30T00:47:38.910Z,7.90
2023-04-30T00:50:06.421Z,7.90
2023-04-30T00:52:33.757Z,7.80
2023-04-30T00:55:00.876Z,7.90
2023-04-30T00:57:28.613Z,7.70
2023-04-30T00:59:56.452Z,7.70
2023-04-30T01:02:24.077Z,7.60
2023-04-30T01:04:52.009Z,7.60
2023-04-30T01:07:19.015Z,7.60
2023-04-30T01:09:46.009Z,7.50
2023-04-30T01:12:23.197Z,7.50
2023-04-30T01:15:20.462Z,7.40
2023-04-30T01:17:57.129Z,7.30
2023-04-30T01:20:26.720Z,7.30
2023-04-30T01:23:41.195Z,7.20
2023-04-30T01:26:43.229Z,7.20
2023-04-30T01:29:13.205Z,7.20
2023-04-30T01:31:43.350Z,7.20
2023-04-30T01:34:10.142Z,7.10
2023-04-30T01:36:51.062Z,7.10
2023-04-30T01:39:32.634Z,7.10
2023-04-30T01:42:18.978Z,7.00
2023-04-30T01:44:55.167Z,7.00
2023-04-30T01:47:30.925Z,7.00
2023-04-30T01:50:13.924Z,6.80
2023-04-30T01:52:52.868Z,6.90
2023-04-30T01:56:05.362Z,6.80
2023-04-30T01:58:32.719Z,6.80
2023-04-30T02:00:59.634Z,6.70
2023-04-30T02:03:26.763Z,6.70
2023-04-30T02:05:55.108Z,6.70
2023-04-30T02:08:22.290Z,6.60
2023-04-30T02:10:49.113Z,6.50
2023-04-30T02:13:16.241Z,6.50
2023-04-30T02:15:43.077Z,6.50
2023-04-30T02:18:10.123Z,6.50
2023-04-30T02:20:36.964Z,6.50
2023-04-30T02:23:03.863Z,6.40
2023-04-30T02:25:30.762Z,6.40
2023-04-30T02:27:57.841Z,6.30
2023-04-30T02:30:24.634Z,6.30
2023-04-30T02:32:51.724Z,6.40
2023-04-30T02:35:18.877Z,6.60
2023-04-30T02:37:46.024Z,6.50
2023-04-30T02:40:12.964Z,6.50
2023-04-30T02:42:39.858Z,6.50
2023-04-30T02:45:07.319Z,6.40
2023-04-30T02:47:34.512Z,6.40
2023-04-30T02:50:01.305Z,6.30
2023-04-30T02:52:28.342Z,6.20
2023-04-30T02:54:55.115Z,6.30
2023-04-30T02:57:22.152Z,6.20
2023-04-30T02:59:48.996Z,6.20
2023-04-30T03:02:15.851Z,6.20
2023-04-30T03:04:42.922Z,6.10
2023-04-30T03:07:09.845Z,6.00
2023-04-30T03:09:36.854Z,6.00
2023-04-30T03:12:04.076Z,6.00
2023-04-30T03:14:31.018Z,6.00
2023-04-30T03:16:57.872Z,5.90
2023-04-30T03:19:25.766Z,6.00
2023-04-30T03:21:52.940Z,6.00
2023-04-30T03:24:20.135Z,5.90
2023-04-30T03:26:47.243Z,6.00
2023-04-30T03:29:14.173Z,5.90
2023-04-30T03:31:41.129Z,5.80
2023-04-30T03:34:09.123Z,5.70
2023-04-30T03:36:36.249Z,5.80
2023-04-30T03:39:04.392Z,5.80
2023-04-30T03:41:31.217Z,5.80
2023-04-30T03:43:58.101Z,5.80
2023-04-30T03:46:27.716Z,5.80
2023-04-30T03:48:55.016Z,5.80
2023-04-30T03:51:22.077Z,5.80
2023-04-30T03:53:49.292Z,5.80
2023-04-30T03:56:16.252Z,5.70
2023-04-30T03:58:43.469Z,5.60
2023-04-30T04:01:10.644Z,5.50
2023-04-30T04:03:37.808Z,5.50
2023-04-30T04:06:10.424Z,5.50
2023-04-30T04:08:41.543Z,5.40
2023-04-30T04:11:08.778Z,5.40
2023-04-30T04:16:18.821Z,5.40
2023-04-30T04:18:45.902Z,5.40
2023-04-30T04:21:13.334Z,5.40
2023-04-30T04:23:40.448Z,5.40
2023-04-30T04:26:07.391Z,5.30
2023-04-30T04:28:35.126Z,5.40
2023-04-30T04:31:04.110Z,5.40
2023-04-30T04:33:31.960Z,5.40
2023-04-30T04:38:42.398Z,5.80
2023-04-30T04:41:09.368Z,5.90
2023-04-30T04:43:37.197Z,5.90
2023-04-30T04:46:12.248Z,6.00
2023-04-30T04:48:40.761Z,6.00
2023-04-30T04:51:07.569Z,6.10
2023-04-30T04:53:44.238Z,6.00
2023-04-30T04:56:12.336Z,6.20
2023-04-30T04:58:40.200Z,6.00
2023-04-30T05:01:07.148Z,6.10
2023-04-30T05:03:37.166Z,6.00
2023-04-30T05:06:04.699Z,6.10
2023-04-30T05:08:32.492Z,6.10
2023-04-30T05:10:59.656Z,6.10
2023-04-30T05:13:26.535Z,6.20
2023-04-30T05:15:54.723Z,6.20
2023-04-30T05:18:22.030Z,6.30
2023-04-30T05:20:49.423Z,6.40
2023-04-30T05:23:19.146Z,6.40
2023-04-30T05:25:46.385Z,6.50
2023-04-30T05:28:14.642Z,6.40
2023-04-30T05:30:44.034Z,6.60
2023-04-30T05:33:14.066Z,6.60
2023-04-30T05:35:44.175Z,6.70
2023-04-30T05:38:11.160Z,6.80
2023-04-30T05:40:41.191Z,6.70
2023-04-30T05:43:08.758Z,6.80
2023-04-30T05:45:38.716Z,7.00
2023-04-30T05:50:47.809Z,7.00
2023-04-30T05:53:24.095Z,7.00
2023-04-30T05:55:54.272Z,7.00
2023-04-30T05:58:22.848Z,6.90
2023-04-30T06:00:58.614Z,7.10
2023-04-30T06:03:26.966Z,7.30
2023-04-30T06:06:08.105Z,7.50
2023-04-30T06:08:36.061Z,7.40
2023-04-30T06:11:06.473Z,7.40
2023-04-30T06:13:33.472Z,7.60
2023-04-30T06:16:00.684Z,7.80
2023-04-30T06:18:27.893Z,7.90
2023-04-30T06:20:54.940Z,7.70
2023-04-30T06:23:22.042Z,7.80
2023-04-30T06:25:49.254Z,7.80
2023-04-30T06:28:18.113Z,7.70
2023-04-30T06:30:48.689Z,7.70
2023-04-30T06:35:59.482Z,7.80
2023-04-30T06:43:49.689Z,7.90
2023-04-30T06:46:18.829Z,8.10
2023-04-30T06:48:47.706Z,8.20
2023-04-30T06:51:14.575Z,8.20
2023-04-30T06:53:41.770Z,8.20
2023-04-30T06:56:08.817Z,8.10
2023-04-30T06:58:36.752Z,8.00
2023-04-30T07:01:05.480Z,8.10
2023-04-30T07:03:33.805Z,8.30
2023-04-30T07:06:03.936Z,8.50
2023-04-30T07:08:32.470Z,8.30
2023-04-30T07:10:59.359Z,8.70
2023-04-30T07:13:26.432Z,8.90
2023-04-30T07:15:53.414Z,9.10
2023-04-30T07:18:20.919Z,9.30
2023-04-30T07:20:47.754Z,9.00
2023-04-30T07:23:14.911Z,8.90
2023-04-30T07:25:43.465Z,9.00
2023-04-30T07:28:10.390Z,9.10
2023-04-30T07:30:38.893Z,9.20
2023-04-30T07:33:05.881Z,8.80
2023-04-30T07:35:33.614Z,8.70
2023-04-30T07:38:00.674Z,9.20
2023-04-30T07:40:35.860Z,9.10
2023-04-30T07:43:04.722Z,9.20
2023-04-30T07:45:32.242Z,9.30
2023-04-30T07:47:59.623Z,9.50
2023-04-30T07:50:28.624Z,9.70
2023-04-30T07:52:58.375Z,9.60
2023-04-30T07:55:26.711Z,9.70
2023-04-30T07:57:54.863Z,9.70
2023-04-30T08:00:21.821Z,10.00
2023-04-30T08:02:50.280Z,10.30
2023-04-30T08:05:19.689Z,10.70
2023-04-30T08:07:59.218Z,10.80
2023-04-30T08:10:28.170Z,10.80
2023-04-30T08:12:55.591Z,11.10
2023-04-30T08:15:22.688Z,11.10
2023-04-30T08:17:53.405Z,11.30
2023-04-30T08:20:23.894Z,11.50
2023-04-30T08:22:53.824Z,11.50
2023-04-30T08:25:21.283Z,11.70
2023-04-30T08:27:49.894Z,11.90
2023-04-30T08:30:17.828Z,12.00
2023-04-30T08:32:44.602Z,11.90
2023-04-30T08:35:11.824Z,11.90
2023-04-30T08:37:38.664Z,12.30
2023-04-30T08:40:09.985Z,12.50
2023-04-30T08:42:38.481Z,12.80
2023-04-30T08:45:08.905Z,12.90
2023-04-30T08:47:39.814Z,13.00
2023-04-30T08:50:09.099Z,13.30
2023-04-30T08:52:37.397Z,13.20
2023-04-30T08:55:08.331Z,13.30
2023-04-30T08:57:37.662Z,13.50
2023-04-30T09:00:07.491Z,13.90
2023-04-30T09:02:35.500Z,14.10
2023-04-30T09:10:24.490Z,13.90
2023-04-30T09:13:24.201Z,14.00
2023-04-30T09:15:52.527Z,14.00
2023-04-30T09:18:21.323Z,14.00
2023-04-30T09:21:04.004Z,14.10
2023-04-30T09:23:36.222Z,14.10
2023-04-30T09:26:03.508Z,14.40
2023-04-30T09:28:31.189Z,14.60
2023-04-30T09:31:02.044Z,14.90
2023-04-30T09:33:30.734Z,14.90
2023-04-30T09:36:12.936Z,15.00
2023-04-30T09:38:42.827Z,15.20
2023-04-30T09:41:29.197Z,15.60
2023-04-30T09:43:57.343Z,16.00
2023-04-30T09:46:37.334Z,16.00
2023-04-30T09:49:09.119Z,16.00
2023-04-30T09:51:36.848Z,16.00
2023-04-30T09:54:06.580Z,16.00
2023-04-30T09:56:35.546Z,16.20
2023-04-30T09:59:05.146Z,16.30
2023-04-30T10:01:34.513Z,16.40
2023-04-30T10:04:02.077Z,16.60
2023-04-30T10:06:31.990Z,16.20
2023-04-30T10:08:59.572Z,16.50
2023-04-30T10:11:30.030Z,17.10
2023-04-30T10:14:13.420Z,17.40
2023-04-30T10:16:59.485Z,17.50
2023-04-30T10:19:32.692Z,17.30
2023-04-30T10:22:05.007Z,17.30
2023-04-30T10:24:32.354Z,17.40
2023-04-30T10:27:08.632Z,17.60
2023-04-30T10:29:36.567Z,17.50
2023-04-30T10:32:09.578Z,17.60
2023-04-30T10:34:42.343Z,18.10
2023-04-30T10:37:22.576Z,18.40
2023-04-30T10:39:51.718Z,18.60
2023-04-30T10:42:19.199Z,18.70
2023-04-30T10:44:46.863Z,18.90
2023-04-30T10:47:15.169Z,18.90
2023-04-30T10:49:53.478Z,19.00
2023-04-30T10:52:29.088Z,18.80
2023-04-30T10:54:56.313Z,18.50
2023-04-30T10:57:23.535Z,18.40
2023-04-30T10:59:54.702Z,18.50
2023-04-30T11:02:22.127Z,18.60
2023-04-30T11:05:10.745Z,18.60
2023-04-30T11:07:38.494Z,18.80
2023-04-30T11:10:12.725Z,18.60
2023-04-30T11:12:42.115Z,18.50
2023-04-30T11:15:18.102Z,18.80
2023-04-30T11:17:46.393Z,18.30
2023-04-30T11:20:14.845Z,18.50
2023-04-30T11:22:41.910Z,18.90
2023-04-30T11:25:13.835Z,19.40
2023-04-30T11:27:48.186Z,19.30
2023-04-30T11:30:19.178Z,19.70
2023-04-30T11:32:49.354Z,20.10
2023-04-30T11:35:19.876Z,20.20
2023-04-30T11:37:48.831Z,20.10
2023-04-30T11:40:16.457Z,20.00
2023-04-30T11:42:46.315Z,20.10
2023-04-30T11:45:18.046Z,18.90
2023-04-30T11:47:49.725Z,19.60
2023-04-30T11:50:30.532Z,20.00
2023-04-30T11:53:00.544Z,20.30
2023-04-30T11:55:28.559Z,20.10
2023-04-30T11:57:58.849Z,19.90
2023-04-30T12:00:30.752Z,20.20
2023-04-30T12:03:03.475Z,20.50
2023-04-30T12:05:31.010Z,20.90
2023-04-30T12:08:01.280Z,21.00
2023-04-30T12:10:31.256Z,20.70
2023-04-30T12:12:59.491Z,20.50
2023-04-30T12:15:28.138Z,20.10
2023-04-30T12:17:58.993Z,20.30
2023-04-30T12:20:29.421Z,20.60
2023-04-30T12:22:57.196Z,20.10
2023-04-30T12:25:26.772Z,20.40
2023-04-30T12:27:56.352Z,21.00
2023-04-30T12:30:27.032Z,21.20
2023-04-30T12:32:57.558Z,21.20
2023-04-30T12:35:25.413Z,20.90
2023-04-30T12:37:54.244Z,21.00
2023-04-30T12:40:26.745Z,21.60
2023-04-30T12:43:02.179Z,21.70
2023-04-30T12:45:51.962Z,21.20
2023-04-30T12:48:21.531Z,20.60
2023-04-30T12:51:10.612Z,20.00
2023-04-30T12:53:49.104Z,19.80
2023-04-30T12:56:17.841Z,20.10
2023-04-30T12:58:47.565Z,20.50
2023-04-30T13:01:18.372Z,21.30
2023-04-30T13:03:45.559Z,22.10
2023-04-30T13:06:12.678Z,22.80
2023-04-30T13:08:54.068Z,23.00
2023-04-30T13:11:26.912Z,23.50
2023-04-30T13:13:57.665Z,23.40
2023-04-30T13:16:25.671Z,24.10
2023-04-30T13:18:53.352Z,24.80
2023-04-30T13:21:24.157Z,25.60
2023-04-30T13:23:54.723Z,26.10
2023-04-30T13:26:23.706Z,25.40
2023-04-30T13:28:51.420Z,25.40
2023-04-30T13:31:18.916Z,25.00
2023-04-30T13:33:47.428Z,25.40
2023-04-30T13:36:14.941Z,25.20
2023-04-30T13:38:42.307Z,25.40
2023-04-30T13:41:09.420Z,25.00
2023-04-30T13:43:41.482Z,25.40
2023-04-30T13:46:09.804Z,24.70
2023-04-30T13:48:36.906Z,25.20
2023-04-30T13:51:03.792Z,25.20
2023-04-30T13:53:30.563Z,26.00
2023-04-30T13:55:59.309Z,25.40
2023-04-30T13:58:26.440Z,24.60
2023-04-30T14:00:53.259Z,23.90
2023-04-30T14:03:20.404Z,23.10
2023-04-30T14:05:49.976Z,21.90
2023-04-30T14:08:16.839Z,21.40
2023-04-30T14:10:46.392Z,21.40
2023-04-30T14:13:13.592Z,21.00
2023-04-30T14:15:41.561Z,21.70
2023-04-30T14:18:08.642Z,23.70
2023-04-30T14:20:39.776Z,24.90
2023-04-30T14:23:10.035Z,26.40
2023-04-30T14:25:43.237Z,27.20
2023-04-30T14:28:10.110Z,28.20
2023-04-30T14:30:37.322Z,27.80
2023-04-30T14:33:04.482Z,26.20
2023-04-30T14:35:31.939Z,26.20
2023-04-30T14:37:59.080Z,24.90
2023-04-30T14:40:26.522Z,24.20
2023-04-30T14:42:54.481Z,23.50
2023-04-30T14:45:21.930Z,23.20
2023-04-30T14:47:48.959Z,23.00
2023-04-30T14:50:15.848Z,22.50
2023-04-30T14:52:43.148Z,22.90
2023-04-30T14:55:10.018Z,22.80
2023-04-30T14:57:36.739Z,24.50
2023-04-30T15:00:04.252Z,26.40
2023-04-30T15:02:31.281Z,26.70
2023-04-30T15:04:58.528Z,27.70
2023-04-30T15:07:25.964Z,28.70
2023-04-30T15:09:53.087Z,29.00
2023-04-30T15:12:20.177Z,29.00
2023-04-30T15:14:47.114Z,29.60
2023-04-30T15:17:14.556Z,29.00
2023-04-30T15:19:43.866Z,27.60
2023-04-30T15:22:10.981Z,27.00
2023-04-30T15:24:38.697Z,25.90
2023-04-30T15:27:14.659Z,24.20
2023-04-30T15:29:42.034Z,23.10
2023-04-30T15:32:09.251Z,23.10
2023-04-30T15:34:36.155Z,24.20
2023-04-30T15:37:04.226Z,25.70
2023-04-30T15:39:31.849Z,26.30
2023-04-30T15:41:59.107Z,26.50
2023-04-30T15:44:26.468Z,27.10
2023-04-30T15:46:53.853Z,27.10
2023-04-30T15:49:23.237Z,27.40
2023-04-30T15:51:52.017Z,26.50
2023-04-30T15:54:19.817Z,25.50
2023-04-30T15:56:47.830Z,24.60
2023-04-30T15:59:18.415Z,24.30
2023-04-30T16:01:46.184Z,23.00
2023-04-30T16:04:13.624Z,22.80
2023-04-30T16:06:41.183Z,22.30
2023-04-30T16:09:08.956Z,21.70
2023-04-30T16:11:36.586Z,21.70
2023-04-30T16:14:03.520Z,21.80
2023-04-30T16:16:31.165Z,21.80
2023-04-30T16:18:58.468Z,21.80
2023-04-30T16:21:25.472Z,21.80
2023-04-30T16:23:53.183Z,21.70
2023-04-30T16:26:20.104Z,21.30
2023-04-30T16:28:47.879Z,21.40
2023-04-30T16:31:15.748Z,21.20
2023-04-30T16:33:43.147Z,21.40
2023-04-30T16:36:11.078Z,20.70
2023-04-30T16:38:37.953Z,20.90
2023-04-30T16:41:04.866Z,20.90
2023-04-30T16:43:31.628Z,20.90
2023-04-30T16:45:58.519Z,20.60
2023-04-30T16:48:25.332Z,20.70
2023-04-30T16:50:52.128Z,21.30
2023-04-30T16:53:19.023Z,22.30
2023-04-30T16:55:45.717Z,22.90
2023-04-30T16:58:13.355Z,23.60
2023-04-30T17:00:41.257Z,24.20
2023-04-30T17:03:08.577Z,24.10
2023-04-30T17:05:36.099Z,22.90
2023-04-30T17:08:03.445Z,22.30
2023-04-30T17:10:31.887Z,21.70
2023-04-30T17:13:01.459Z,21.50
2023-04-30T17:15:28.770Z,21.20
2023-04-30T17:17:57.862Z,20.60
2023-04-30T17:20:25.825Z,20.20
2023-04-30T17:22:53.518Z,19.80
2023-04-30T17:28:02.274Z,19.30
2023-04-30T17:30:29.536Z,19.10
2023-04-30T17:32:57.145Z,19.00
2023-04-30T17:35:25.953Z,19.00
2023-04-30T17:37:53.978Z,18.80
2023-04-30T17:40:21.043Z,18.70
2023-04-30T17:42:48.619Z,18.60
2023-04-30T17:45:15.745Z,18.50
2023-04-30T17:47:42.973Z,18.30
2023-04-30T17:50:10.815Z,18.30
2023-04-30T17:52:40.310Z,18.10
2023-04-30T17:55:11.161Z,18.10
2023-04-30T17:57:38.471Z,18.20
2023-04-30T18:00:07.181Z,18.20
2023-04-30T18:05:17.830Z,17.90
2023-04-30T18:07:45.028Z,17.80
2023-04-30T18:10:12.123Z,17.70
2023-04-30T18:12:39.437Z,17.60
2023-04-30T18:15:11.799Z,17.40
2023-04-30T18:17:40.000Z,17.30
2023-04-30T18:20:08.904Z,17.10
2023-04-30T18:22:41.413Z,16.90
2023-04-30T18:25:13.249Z,16.70
2023-04-30T18:27:44.236Z,16.60
2023-04-30T18:30:15.564Z,16.50
2023-04-30T18:32:47.967Z,16.40
2023-04-30T18:35:15.905Z,16.20
2023-04-30T18:37:43.425Z,16.10
2023-04-30T18:40:11.172Z,15.90
2023-04-30T18:42:49.150Z,15.80
2023-04-30T18:45:35.223Z,15.70
2023-04-30T18:50:48.900Z,15.40
2023-04-30T18:53:21.269Z,15.30
2023-04-30T18:55:50.771Z,15.00
2023-04-30T18:58:21.630Z,14.90
2023-04-30T19:00:49.838Z,14.70
2023-04-30T19:03:19.372Z,14.60
2023-04-30T19:05:46.625Z,14.50
2023-04-30T19:08:13.911Z,14.30
2023-04-30T19:10:40.953Z,14.20
2023-04-30T19:13:09.647Z,14.10
2023-04-30T19:15:41.546Z,14.00
2023-04-30T19:18:15.041Z,13.80
2023-04-30T19:21:00.527Z,13.80
2023-04-30T19:23:35.279Z,13.60
2023-04-30T19:26:06.043Z,13.50
2023-04-30T19:28:33.739Z,13.40
2023-04-30T19:31:02.293Z,13.30
2023-04-30T19:33:42.614Z,13.10
2023-04-30T19:36:14.241Z,13.10
2023-04-30T19:38:46.000Z,13.00
2023-04-30T19:41:13.135Z,12.90
2023-04-30T19:43:40.361Z,12.90
2023-04-30T19:46:07.857Z,12.80
2023-04-30T19:48:38.074Z,12.80
2023-04-30T19:51:11.530Z,12.70
2023-04-30T19:53:38.878Z,12.60
2023-04-30T19:56:10.059Z,12.50
2023-04-30T19:58:45.008Z,12.40
2023-04-30T20:03:55.567Z,12.30
2023-04-30T20:06:27.861Z,12.20
2023-04-30T20:08:58.982Z,12.20
2023-04-30T20:11:29.469Z,12.10
2023-04-30T20:13:59.227Z,12.10
2023-04-30T20:16:26.270Z,12.10
2023-04-30T20:18:53.201Z,11.90
2023-04-30T20:21:21.650Z,11.90
2023-04-30T20:23:49.149Z,11.90
2023-04-30T20:26:16.142Z,11.80
2023-04-30T20:28:46.094Z,11.80
2023-04-30T20:31:13.573Z,11.70
2023-04-30T20:33:43.012Z,11.70
2023-04-30T20:36:10.991Z,11.70
2023-04-30T20:38:39.261Z,11.70
2023-04-30T20:41:06.066Z,11.60
2023-04-30T20:43:33.181Z,11.50
2023-04-30T20:46:00.382Z,11.50
2023-04-30T20:48:27.633Z,11.50
2023-04-30T20:50:55.052Z,11.50
2023-04-30T20:53:22.973Z,11.40
2023-04-30T20:55:50.188Z,11.40
2023-04-30T20:58:17.440Z,11.30
2023-04-30T21:00:45.248Z,11.30
2023-04-30T21:03:12.594Z,11.20
2023-04-30T21:05:40.999Z,11.20
2023-04-30T21:08:08.618Z,11.20
2023-04-30T21:10:36.893Z,11.20
2023-04-30T21:13:08.985Z,11.20
2023-04-30T21:15:36.523Z,11.20
2023-04-30T21:18:03.661Z,11.20
2023-04-30T21:20:33.037Z,11.20
2023-04-30T21:23:01.256Z,11.20
2023-04-30T21:25:28.547Z,11.20
2023-04-30T21:27:57.132Z,11.20
2023-04-30T21:30:26.707Z,11.10
2023-04-30T21:32:59.181Z,11.20
2023-04-30T21:35:29.623Z,11.20
2023-04-30T21:38:00.448Z,11.10
2023-04-30T21:40:27.352Z,11.10
2023-04-30T21:42:54.949Z,11.10
2023-04-30T21:45:21.872Z,11.10
2023-04-30T21:47:48.963Z,11.10
2023-04-30T21:50:15.984Z,11.10
2023-04-30T21:52:43.541Z,11.10
2023-04-30T21:55:10.563Z,11.10
2023-04-30T21:57:39.103Z,11.10
2023-04-30T22:00:07.123Z,11.10
2023-04-30T22:02:34.534Z,11.00
2023-04-30T22:05:02.319Z,11.10
2023-04-30T22:07:29.844Z,11.10
2023-04-30T22:09:57.586Z,11.00
2023-04-30T22:12:25.448Z,11.00
2023-04-30T22:14:54.280Z,11.00
2023-04-30T22:17:21.940Z,10.90
2023-04-30T22:19:49.175Z,10.90
2023-04-30T22:22:16.577Z,10.90
2023-04-30T22:24:43.523Z,10.90
2023-04-30T22:27:11.061Z,11.00
2023-04-30T22:29:38.292Z,10.90
2023-04-30T22:32:09.796Z,10.90
2023-04-30T22:34:41.411Z,10.90
2023-04-30T22:37:11.576Z,10.90
2023-04-30T22:39:39.230Z,10.80
2023-04-30T22:42:06.511Z,10.80
2023-04-30T22:44:34.021Z,10.80
2023-04-30T22:47:02.741Z,10.90
2023-04-30T22:49:32.053Z,10.80
2023-04-30T22:52:01.194Z,10.80
2023-04-30T22:54:28.487Z,10.80
2023-04-30T22:56:57.368Z,10.70
2023-04-30T22:59:24.240Z,10.70
2023-04-30T23:01:51.604Z,10.80
2023-04-30T23:04:18.686Z,10.80
2023-04-30T23:06:46.717Z,10.80
2023-04-30T23:09:17.724Z,10.80
2023-04-30T23:11:45.265Z,10.70
2023-04-30T23:14:14.659Z,10.70
2023-04-30T23:16:42.861Z,10.70
2023-04-30T23:19:10.469Z,10.70
2023-04-30T23:21:37.875Z,10.60
2023-04-30T23:24:07.731Z,10.60
2023-04-30T23:26:35.636Z,10.60
2023-04-30T23:29:03.335Z,10.60
2023-04-30T23:31:30.937Z,10.60
2023-04-30T23:33:58.469Z,10.50
2023-04-30T23:36:25.764Z,10.50
2023-04-30T23:38:54.078Z,10.40
2023-04-30T23:41:21.148Z,10.40
2023-04-30T23:43:50.305Z,10.50
2023-04-30T23:46:19.456Z,10.50
2023-04-30T23:48:46.870Z,10.50
2023-04-30T23:51:14.093Z,10.40
2023-04-30T23:53:40.929Z,10.40
2023-04-30T23:56:11.267Z,10.40
2023-04-30T23:58:41.350Z,10.30
